Time,TemperatureF,DewpointF,PressureIn,WindDirection,WindDirectionDegrees,WindSpeedMPH,WindSpeedGustMPH,Humidity,HourlyPrecipIn,Conditions,Clouds,dailyrainin,SolarRadiationWatts/m^2,SoftwareType,DateUTC
2013-02-26 00:00:00,28.9,26.1,30.31,NNW,338,0.0,0.0,89,0.00,,---,0.00,0.00,VWS V14.01,2013-02-26 05:00:00,
2013-02-26 00:27:00,28.1,25.3,30.31,NNW,338,0.0,2.0,89,0.00,,---,0.00,0.00,VWS V14.01,2013-02-26 05:27:00,
2013-02-26 00:30:00,28.1,25.3,30.31,NNW,338,0.0,2.0,89,0.00,,---,0.00,0.00,VWS V14.01,2013-02-26 05:30:00,
2013-02-26 00:57:00,27.5,25.0,30.31,NNW,338,0.0,0.0,90,0.00,,---,0.00,0.00,VWS V14.01,2013-02-26 05:57:00,
2013-02-26 01:00:00,27.5,25.0,30.31,NNW,338,0.0,0.0,90,0.00,,---,0.00,0.00,VWS V14.01,2013-02-26 06:00:00,
2013-02-26 01:27:00,26.9,24.6,30.32,NNW,338,0.0,0.0,91,0.00,,---,0.00,0.00,VWS V14.01,2013-02-26 06:27:00,
2013-02-26 01:30:00,26.9,24.6,30.32,NNW,338,0.0,0.0,91,0.00,,---,0.00,0.00,VWS V14.01,2013-02-26 06:30:00,
2013-02-26 01:57:00,26.6,24.6,30.32,NNW,338,0.0,1.0,92,0.00,,---,0.00,0.00,VWS V14.01,2013-02-26 06:57:00,
2013-02-26 02:00:00,26.6,24.6,30.32,NNW,338,0.0,1.0,92,0.00,,---,0.00,0.00,VWS V14.01,2013-02-26 07:00:00,
2013-02-26 02:27:00,25.6,23.6,30.32,NNW,338,0.0,0.0,92,0.00,,---,0.00,0.00,VWS V14.01,2013-02-26 07:27:00,
2013-02-26 02:30:00,25.6,23.6,30.32,NNW,338,0.0,0.0,92,0.00,,---,0.00,0.00,VWS V14.01,2013-02-26 07:30:00,
2013-02-26 02:57:00,25.0,23.0,30.31,NNW,337,0.0,1.0,92,0.00,,---,0.00,0.00,VWS V14.01,2013-02-26 07:57:00,
2013-02-26 03:00:00,25.0,23.0,30.31,NNW,337,0.0,1.0,92,0.00,,---,0.00,0.00,VWS V14.01,2013-02-26 08:00:00,
2013-02-26 03:27:00,25.1,23.1,30.31,NNW,338,0.0,2.0,92,0.00,,---,0.00,0.00,VWS V14.01,2013-02-26 08:27:00,
2013-02-26 03:30:00,25.1,23.1,30.31,NNW,338,0.0,2.0,92,0.00,,---,0.00,0.00,VWS V14.01,2013-02-26 08:30:00,
2013-02-26 03:57:00,24.3,22.3,30.31,NNW,338,0.0,1.0,92,0.00,,---,0.00,0.00,VWS V14.01,2013-02-26 08:57:00,
2013-02-26 04:00:00,24.3,22.3,30.31,NNW,338,0.0,1.0,92,0.00,,---,0.00,0.00,VWS V14.01,2013-02-26 09:00:00,
2013-02-26 04:27:00,24.4,22.4,30.30,NNW,338,0.0,0.0,92,0.00,,---,0.00,0.00,VWS V14.01,2013-02-26 09:27:00,
2013-02-26 04:30:00,24.4,22.4,30.30,NNW,338,0.0,0.0,92,0.00,,---,0.00,0.00,VWS V14.01,2013-02-26 09:30:00,
2013-02-26 04:57:00,24.2,22.0,30.32,NNW,338,0.0,1.0,91,0.00,,---,0.00,0.00,VWS V14.01,2013-02-26 09:57:00,
2013-02-26 05:00:00,24.2,22.0,30.32,NNW,338,0.0,1.0,91,0.00,,---,0.00,0.00,VWS V14.01,2013-02-26 10:00:00,
2013-02-26 05:27:00,24.6,22.6,30.33,NNW,340,1.0,2.0,92,0.00,,---,0.00,0.00,VWS V14.01,2013-02-26 10:27:00,
2013-02-26 05:30:00,24.6,22.6,30.33,NNW,340,1.0,2.0,92,0.00,,---,0.00,0.00,VWS V14.01,2013-02-26 10:30:00,
2013-02-26 05:57:00,25.8,23.5,30.33,NNE,15,1.0,3.0,91,0.00,,---,0.00,0.00,VWS V14.01,2013-02-26 10:57:00,
2013-02-26 06:00:00,25.8,23.5,30.33,NNE,15,1.0,3.0,91,0.00,,---,0.00,0.00,VWS V14.01,2013-02-26 11:00:00,
2013-02-26 06:27:00,26.5,24.2,30.32,ESE,112,0.0,5.0,91,0.00,,---,0.00,0.00,VWS V14.01,2013-02-26 11:27:00,
2013-02-26 06:30:00,26.5,24.2,30.32,ESE,112,0.0,5.0,91,0.00,,---,0.00,0.00,VWS V14.01,2013-02-26 11:30:00,
2013-02-26 06:57:00,26.8,24.5,30.31,ESE,109,0.0,4.0,91,0.00,,---,0.00,5.00,VWS V14.01,2013-02-26 11:57:00,
2013-02-26 07:00:00,26.8,24.5,30.31,ESE,109,0.0,4.0,91,0.00,,---,0.00,5.00,VWS V14.01,2013-02-26 12:00:00,
2013-02-26 07:27:00,27.5,25.2,30.31,ESE,108,1.0,6.0,91,0.00,,---,0.00,21.00,VWS V14.01,2013-02-26 12:27:00,
2013-02-26 07:30:00,27.5,25.2,30.31,ESE,108,1.0,6.0,91,0.00,,---,0.00,21.00,VWS V14.01,2013-02-26 12:30:00,
2013-02-26 07:57:00,29.6,26.5,30.30,SE,124,1.0,7.0,88,0.00,,---,0.00,105.00,VWS V14.01,2013-02-26 12:57:00,
2013-02-26 08:00:00,29.6,26.5,30.30,SE,124,1.0,7.0,88,0.00,,---,0.00,105.00,VWS V14.01,2013-02-26 13:00:00,
2013-02-26 08:27:00,31.2,27.2,30.31,SE,134,5.0,7.0,85,0.00,,---,0.00,163.00,VWS V14.01,2013-02-26 13:27:00,
2013-02-26 08:30:00,31.2,27.2,30.31,SE,134,5.0,7.0,85,0.00,,---,0.00,163.00,VWS V14.01,2013-02-26 13:30:00,
2013-02-26 08:57:00,33.0,28.1,30.30,ESE,121,5.0,9.0,82,0.00,,---,0.00,285.00,VWS V14.01,2013-02-26 13:57:00,
2013-02-26 09:00:00,33.0,28.1,30.30,ESE,121,5.0,9.0,82,0.00,,---,0.00,285.00,VWS V14.01,2013-02-26 14:00:00,
2013-02-26 09:27:00,34.6,28.1,30.30,SE,136,6.0,12.0,77,0.00,,---,0.00,334.00,VWS V14.01,2013-02-26 14:27:00,
2013-02-26 09:30:00,34.6,28.1,30.30,SE,136,6.0,12.0,77,0.00,,---,0.00,334.00,VWS V14.01,2013-02-26 14:30:00,
2013-02-26 09:57:00,35.4,28.0,30.30,SE,142,7.0,13.0,74,0.00,,---,0.00,420.00,VWS V14.01,2013-02-26 14:57:00,
2013-02-26 10:00:00,35.4,28.0,30.30,SE,142,7.0,13.0,74,0.00,,---,0.00,420.00,VWS V14.01,2013-02-26 15:00:00,
2013-02-26 10:27:00,37.3,28.8,30.29,SE,139,2.0,14.0,71,0.00,,---,0.00,457.00,VWS V14.01,2013-02-26 15:27:00,
2013-02-26 10:30:00,37.3,28.8,30.29,SE,139,2.0,14.0,71,0.00,,---,0.00,457.00,VWS V14.01,2013-02-26 15:30:00,
2013-02-26 10:57:00,38.7,29.4,30.26,ESE,114,5.0,12.0,69,0.00,,---,0.00,492.00,VWS V14.01,2013-02-26 15:57:00,
2013-02-26 11:00:00,38.7,29.4,30.26,ESE,114,5.0,12.0,69,0.00,,---,0.00,492.00,VWS V14.01,2013-02-26 16:00:00,
2013-02-26 11:27:00,40.0,29.6,30.26,ENE,74,6.0,15.0,66,0.01,,---,0.01,578.00,VWS V14.01,2013-02-26 16:27:00,
2013-02-26 11:30:00,40.0,29.6,30.26,ENE,74,6.0,15.0,66,0.01,,---,0.01,578.00,VWS V14.01,2013-02-26 16:30:00,
2013-02-26 11:57:00,40.9,30.1,30.25,SSE,163,5.0,16.0,65,0.01,,---,0.01,578.00,VWS V14.01,2013-02-26 16:57:00,
2013-02-26 12:00:00,40.9,30.1,30.25,SSE,163,5.0,16.0,65,0.01,,---,0.01,578.00,VWS V14.01,2013-02-26 17:00:00,
2013-02-26 12:27:00,42.0,29.9,30.21,ESE,110,4.0,17.0,62,0.01,,---,0.01,564.00,VWS V14.01,2013-02-26 17:27:00,
2013-02-26 12:30:00,42.0,29.9,30.21,ESE,110,4.0,17.0,62,0.01,,---,0.01,564.00,VWS V14.01,2013-02-26 17:30:00,
2013-02-26 12:57:00,42.9,30.4,30.18,SE,128,13.0,17.0,61,0.00,,---,0.01,504.00,VWS V14.01,2013-02-26 17:57:00,
2013-02-26 13:00:00,42.9,30.4,30.18,SE,128,13.0,17.0,61,0.00,,---,0.01,504.00,VWS V14.01,2013-02-26 18:00:00,
2013-02-26 13:27:00,43.2,29.0,30.17,ESE,119,14.0,22.0,57,0.00,,---,0.01,471.00,VWS V14.01,2013-02-26 18:27:00,
2013-02-26 13:30:00,43.2,29.0,30.17,ESE,119,14.0,22.0,57,0.00,,---,0.01,471.00,VWS V14.01,2013-02-26 18:30:00,
2013-02-26 13:57:00,43.6,29.0,30.15,ESE,121,14.0,23.0,56,0.00,,---,0.01,369.00,VWS V14.01,2013-02-26 18:57:00,
2013-02-26 14:00:00,43.6,29.0,30.15,ESE,121,14.0,23.0,56,0.00,,---,0.01,369.00,VWS V14.01,2013-02-26 19:00:00,
2013-02-26 14:27:00,43.3,28.7,30.14,SSE,165,8.0,22.0,56,0.00,,---,0.01,244.00,VWS V14.01,2013-02-26 19:27:00,
2013-02-26 14:30:00,43.3,28.7,30.14,SSE,165,8.0,22.0,56,0.00,,---,0.01,244.00,VWS V14.01,2013-02-26 19:30:00,
2013-02-26 14:57:00,43.1,28.9,30.14,ESE,116,4.0,19.0,57,0.00,,---,0.01,174.00,VWS V14.01,2013-02-26 19:57:00,
2013-02-26 15:00:00,43.1,28.9,30.14,ESE,116,4.0,19.0,57,0.00,,---,0.01,174.00,VWS V14.01,2013-02-26 20:00:00,
2013-02-26 15:27:00,43.0,28.8,30.13,ESE,114,9.0,19.0,57,0.00,,---,0.01,144.00,VWS V14.01,2013-02-26 20:27:00,
2013-02-26 15:30:00,43.0,28.8,30.13,ESE,114,9.0,19.0,57,0.00,,---,0.01,144.00,VWS V14.01,2013-02-26 20:30:00,
2013-02-26 15:57:00,42.9,28.7,30.11,ESE,113,7.0,15.0,57,0.00,,---,0.01,88.00,VWS V14.01,2013-02-26 20:57:00,
2013-02-26 16:00:00,42.9,28.7,30.11,ESE,113,7.0,15.0,57,0.00,,---,0.01,88.00,VWS V14.01,2013-02-26 21:00:00,
2013-02-26 16:27:00,42.5,28.8,30.08,ESE,122,12.0,17.0,58,0.00,,---,0.01,51.00,VWS V14.01,2013-02-26 21:27:00,
2013-02-26 16:30:00,42.5,28.8,30.08,ESE,122,12.0,17.0,58,0.00,,---,0.01,51.00,VWS V14.01,2013-02-26 21:30:00,
2013-02-26 16:57:00,42.3,29.0,30.06,ESE,108,2.0,15.0,59,0.00,,---,0.01,25.00,VWS V14.01,2013-02-26 21:57:00,
2013-02-26 17:00:00,42.3,29.0,30.06,ESE,108,2.0,15.0,59,0.00,,---,0.01,25.00,VWS V14.01,2013-02-26 22:00:00,
2013-02-26 17:27:00,41.7,29.7,30.07,ENE,70,4.0,15.0,62,0.00,,---,0.01,9.00,VWS V14.01,2013-02-26 22:27:00,
2013-02-26 17:30:00,41.7,29.7,30.07,ENE,70,4.0,15.0,62,0.00,,---,0.01,9.00,VWS V14.01,2013-02-26 22:30:00,
2013-02-26 17:57:00,41.2,30.0,30.07,East,87,3.0,16.0,64,0.00,,---,0.01,0.00,VWS V14.01,2013-02-26 22:57:00,
2013-02-26 18:00:00,41.2,30.0,30.07,East,87,3.0,16.0,64,0.00,,---,0.01,0.00,VWS V14.01,2013-02-26 23:00:00,
2013-02-26 18:27:00,41.1,29.5,30.05,SE,126,13.0,14.0,63,0.00,,---,0.01,0.00,VWS V14.01,2013-02-26 23:27:00,
2013-02-26 18:30:00,41.1,29.5,30.05,SE,126,13.0,14.0,63,0.00,,---,0.01,0.00,VWS V14.01,2013-02-26 23:30:00,
2013-02-26 18:57:00,40.6,29.8,30.05,ENE,71,6.0,17.0,65,0.00,,---,0.01,0.00,VWS V14.01,2013-02-26 23:57:00,
2013-02-26 19:00:00,40.6,29.8,30.05,ENE,71,6.0,17.0,65,0.00,,---,0.01,0.00,VWS V14.01,2013-02-27 00:00:00,
2013-02-26 19:27:00,40.1,29.7,30.05,SE,133,8.0,15.0,66,0.00,,---,0.01,0.00,VWS V14.01,2013-02-27 00:27:00,
2013-02-26 19:30:00,40.1,29.7,30.05,SE,133,8.0,15.0,66,0.00,,---,0.01,0.00,VWS V14.01,2013-02-27 00:30:00,
2013-02-26 19:57:00,39.1,31.2,30.03,SE,134,4.0,21.0,73,0.00,,---,0.01,0.00,VWS V14.01,2013-02-27 00:57:00,
2013-02-26 20:00:00,39.1,31.2,30.03,SE,134,4.0,21.0,73,0.00,,---,0.01,0.00,VWS V14.01,2013-02-27 01:00:00,
2013-02-26 20:27:00,36.7,32.0,30.01,ESE,115,7.0,19.0,83,0.01,,---,0.02,0.00,VWS V14.01,2013-02-27 01:27:00,
2013-02-26 20:30:00,36.7,32.0,30.01,ESE,115,7.0,19.0,83,0.01,,---,0.02,0.00,VWS V14.01,2013-02-27 01:30:00,
2013-02-26 20:57:00,36.3,32.2,29.99,East,85,12.0,16.0,85,0.02,,---,0.03,0.00,VWS V14.01,2013-02-27 01:57:00,
2013-02-26 21:00:00,36.3,32.2,29.99,East,85,12.0,16.0,85,0.02,,---,0.03,0.00,VWS V14.01,2013-02-27 02:00:00,
2013-02-26 21:27:00,34.7,32.1,29.99,SE,132,1.0,20.0,90,0.04,,---,0.05,0.00,VWS V14.01,2013-02-27 02:27:00,
2013-02-26 21:30:00,34.7,32.1,29.99,SE,132,1.0,20.0,90,0.04,,---,0.05,0.00,VWS V14.01,2013-02-27 02:30:00,
2013-02-26 21:57:00,34.6,32.2,29.98,SE,129,6.0,9.0,91,0.04,,---,0.06,0.00,VWS V14.01,2013-02-27 02:57:00,
2013-02-26 22:00:00,34.6,32.2,29.98,SE,129,6.0,9.0,91,0.04,,---,0.06,0.00,VWS V14.01,2013-02-27 03:00:00,
2013-02-26 22:27:00,34.3,32.0,30.01,SSE,157,2.0,7.0,91,0.04,,---,0.07,0.00,VWS V14.01,2013-02-27 03:27:00,
2013-02-26 22:30:00,34.3,32.0,30.01,SSE,157,2.0,7.0,91,0.04,,---,0.07,0.00,VWS V14.01,2013-02-27 03:30:00,
2013-02-26 22:57:00,33.6,31.5,29.97,East,80,3.0,7.0,92,0.02,,---,0.07,0.00,VWS V14.01,2013-02-27 03:57:00,
2013-02-26 23:00:00,33.6,31.5,29.97,East,80,3.0,7.0,92,0.02,,---,0.07,0.00,VWS V14.01,2013-02-27 04:00:00,
2013-02-26 23:27:00,33.4,31.6,29.98,ESE,107,1.0,6.0,93,0.01,,---,0.07,0.00,VWS V14.01,2013-02-27 04:27:00,
2013-02-26 23:30:00,33.4,31.6,29.98,ESE,107,1.0,6.0,93,0.01,,---,0.07,0.00,VWS V14.01,2013-02-27 04:30:00,
2013-02-26 23:57:00,33.2,31.7,29.95,ENE,69,2.0,7.0,94,0.01,,---,0.08,0.00,VWS V14.01,2013-02-27 04:57:00,